Terminal Aerodrome Forecast
Issued by NWS Chicago, IL

Home | Current Version | Previous Version | Text Only | Print | Product List | Glossary On
Versions: 1 2 3 4 5 6 7 8 9 10 11 12 13 14 15 16 17 18 19 20 21 22 23 24
600
FTUS43 KLOT 210900 AAA
TAFRFD
TAF AMD
KRFD 210900Z 2109/2206 17011KT P6SM BKN120 BKN250 WS010/21045KT
     FM211200 18012G18KT P6SM SCT150 BKN200
     FM211700 18016G25KT P6SM SCT250
     FM220200 17014G21KT P6SM BKN040 BKN060=

USA.gov is the U.S. government's official web portal to all federal, state and local government web resources and services.